Time;durP1;ratioP1;P1;durP2;ratioP2;P2;SDS_P1;SDS_P2;PMS_P1;PMS_P2;Temp;Humidity;BMP_temperature;BMP_pressure;BME280_temperature;BME280_humidity;BME280_pressure;Samples;Min_cycle;Max_cycle;Signal;HPM_P1;HPM_P2
2022/02/13 00:01:13;;;;;;;;;;;23.40;23.40;;;;;;494221;241;1561;-74
2022/02/13 00:03:12;;;;;;;;;;;23.50;23.40;;;;;;494148;241;1463;-74
2022/02/13 00:05:14;;;;;;;;;;;23.40;23.40;;;;;;494237;241;1037;-73
2022/02/13 00:07:15;;;;;;;;;;;23.40;23.30;;;;;;494157;241;1159;-73
2022/02/13 00:09:16;;;;;;;;;;;23.50;23.40;;;;;;494419;241;1143;-73
2022/02/13 00:11:18;;;;;;;;;;;23.50;23.30;;;;;;494216;241;1213;-73
2022/02/13 00:13:19;;;;;;;;;;;23.40;23.40;;;;;;494368;241;1056;-73
2022/02/13 00:15:20;;;;;;;;;;;23.40;23.40;;;;;;494297;241;2179;-74
2022/02/13 00:17:22;;;;;;;;;;;23.30;23.40;;;;;;494363;241;1290;-73
2022/02/13 00:19:23;;;;;;;;;;;23.40;23.40;;;;;;494361;241;1038;-73
2022/02/13 00:21:24;;;;;;;;;;;23.40;23.30;;;;;;494229;241;1208;-73
2022/02/13 00:23:26;;;;;;;;;;;23.40;23.40;;;;;;494268;241;1201;-73
2022/02/13 00:25:28;;;;;;;;;;;23.50;23.40;;;;;;494293;241;984;-73
2022/02/13 00:27:28;;;;;;;;;;;23.40;23.40;;;;;;494210;241;1417;-73
2022/02/13 00:29:30;;;;;;;;;;;23.40;23.30;;;;;;494289;241;1111;-73
2022/02/13 00:31:31;;;;;;;;;;;23.50;23.30;;;;;;494205;241;1235;-74
2022/02/13 00:33:34;;;;;;;;;;;23.40;23.30;;;;;;494249;241;1065;-74
2022/02/13 00:35:34;;;;;;;;;;;23.40;23.30;;;;;;494117;241;2126;-73
2022/02/13 00:37:35;;;;;;;;;;;23.40;23.20;;;;;;494226;241;1154;-74
2022/02/13 00:39:36;;;;;;;;;;;23.50;23.20;;;;;;494459;241;1048;-74
2022/02/13 00:41:38;;;;;;;;;;;23.40;23.30;;;;;;494185;241;1101;-74
2022/02/13 00:43:39;;;;;;;;;;;23.30;23.30;;;;;;494322;241;1258;-73
2022/02/13 00:45:40;;;;;;;;;;;23.40;23.20;;;;;;494353;241;1215;-74
2022/02/13 00:47:42;;;;;;;;;;;23.30;23.30;;;;;;494396;241;1182;-73
2022/02/13 00:49:43;;;;;;;;;;;23.50;23.20;;;;;;494439;241;1006;-73
2022/02/13 00:51:44;;;;;;;;;;;23.50;23.20;;;;;;494288;241;1265;-73
2022/02/13 00:53:46;;;;;;;;;;;23.50;23.20;;;;;;494323;241;1117;-73
2022/02/13 00:55:47;;;;;;;;;;;23.40;23.20;;;;;;494327;241;2135;-73
2022/02/13 00:57:48;;;;;;;;;;;23.30;23.20;;;;;;494347;241;1177;-73
2022/02/13 00:59:50;;;;;;;;;;;23.30;23.30;;;;;;494274;241;944;-73
2022/02/13 01:01:51;;;;;;;;;;;23.30;23.30;;;;;;494207;241;1219;-73
2022/02/13 01:03:53;;;;;;;;;;;23.30;23.20;;;;;;494452;241;1014;-73
2022/02/13 01:05:55;;;;;;;;;;;23.30;23.30;;;;;;494281;241;1177;-73
2022/02/13 01:07:56;;;;;;;;;;;23.30;23.30;;;;;;494282;241;1132;-74
2022/02/13 01:09:57;;;;;;;;;;;23.10;23.30;;;;;;494349;241;1058;-73
2022/02/13 01:11:58;;;;;;;;;;;23.20;23.30;;;;;;494216;241;1176;-73
2022/02/13 01:14:00;;;;;;;;;;;23.10;23.40;;;;;;494313;241;1205;-73
2022/02/13 01:16:01;;;;;;;;;;;23.10;23.40;;;;;;494346;241;2193;-73
2022/02/13 01:18:02;;;;;;;;;;;23.10;23.40;;;;;;494413;241;1099;-73
2022/02/13 01:20:04;;;;;;;;;;;23.10;23.40;;;;;;494304;241;949;-73
2022/02/13 01:22:07;;;;;;;;;;;23.10;23.30;;;;;;494281;241;1220;-73
2022/02/13 01:24:06;;;;;;;;;;;23.10;23.30;;;;;;494149;241;1418;-73
2022/02/13 01:26:08;;;;;;;;;;;23.10;23.30;;;;;;494279;241;1223;-73
2022/02/13 01:28:09;;;;;;;;;;;22.90;23.30;;;;;;494289;241;1103;-73
2022/02/13 01:30:10;;;;;;;;;;;23.00;23.40;;;;;;494285;241;914;-73
2022/02/13 01:32:12;;;;;;;;;;;23.00;23.40;;;;;;494227;241;1065;-73
2022/02/13 01:34:18;;;;;;;;;;;22.90;23.40;;;;;;494282;241;1066;-73
2022/02/13 01:36:15;;;;;;;;;;;22.90;23.40;;;;;;494003;241;2194;-73
2022/02/13 01:38:16;;;;;;;;;;;23.00;23.40;;;;;;494393;241;1124;-74
2022/02/13 01:40:17;;;;;;;;;;;23.00;23.30;;;;;;494397;241;950;-74
2022/02/13 01:42:19;;;;;;;;;;;23.10;23.30;;;;;;494348;241;1137;-73
2022/02/13 01:44:20;;;;;;;;;;;22.80;23.30;;;;;;494389;241;1059;-73
2022/02/13 01:46:21;;;;;;;;;;;22.50;23.60;;;;;;494330;241;1242;-73
2022/02/13 01:48:22;;;;;;;;;;;22.30;23.70;;;;;;494434;241;1125;-73
2022/02/13 01:50:24;;;;;;;;;;;22.20;23.80;;;;;;494353;241;1198;-74
2022/02/13 01:52:25;;;;;;;;;;;22.10;23.80;;;;;;494362;241;1183;-73
2022/02/13 01:54:26;;;;;;;;;;;22.00;23.90;;;;;;494323;241;1112;-73
2022/02/13 01:56:28;;;;;;;;;;;21.90;24.00;;;;;;494209;241;2136;-73
2022/02/13 01:58:29;;;;;;;;;;;21.90;24.00;;;;;;494284;241;1087;-74
2022/02/13 02:00:30;;;;;;;;;;;22.00;24.00;;;;;;494291;241;1223;-74
2022/02/13 02:02:32;;;;;;;;;;;22.00;24.00;;;;;;494310;241;1155;-73
2022/02/13 02:04:33;;;;;;;;;;;21.90;24.00;;;;;;494296;241;1115;-73
2022/02/13 02:06:34;;;;;;;;;;;21.90;24.00;;;;;;494345;241;1224;-73
2022/02/13 02:08:36;;;;;;;;;;;21.80;24.10;;;;;;494310;241;1118;-73
2022/02/13 02:10:37;;;;;;;;;;;21.90;24.00;;;;;;494317;241;1208;-73
2022/02/13 02:12:38;;;;;;;;;;;22.00;24.00;;;;;;494325;241;1156;-73
2022/02/13 02:14:40;;;;;;;;;;;22.00;24.00;;;;;;494359;241;1095;-73
2022/02/13 02:16:42;;;;;;;;;;;21.90;24.00;;;;;;494304;241;2139;-73
2022/02/13 02:18:43;;;;;;;;;;;21.80;24.00;;;;;;494309;241;1277;-73
2022/02/13 02:20:44;;;;;;;;;;;21.80;24.00;;;;;;494222;241;1438;-73
2022/02/13 02:22:45;;;;;;;;;;;21.80;24.00;;;;;;494258;241;1279;-73
2022/02/13 02:24:47;;;;;;;;;;;21.80;24.10;;;;;;494334;241;1040;-73
2022/02/13 02:26:48;;;;;;;;;;;21.80;24.10;;;;;;494320;241;1157;-73
2022/02/13 02:28:49;;;;;;;;;;;21.80;24.10;;;;;;494298;241;1096;-73
2022/02/13 02:30:51;;;;;;;;;;;21.80;24.00;;;;;;494171;241;1150;-73
2022/02/13 02:32:52;;;;;;;;;;;21.80;24.00;;;;;;494162;241;1066;-73
2022/02/13 02:34:53;;;;;;;;;;;21.80;24.10;;;;;;494325;241;963;-73
2022/02/13 02:36:55;;;;;;;;;;;21.80;24.00;;;;;;494275;241;2174;-73
2022/02/13 02:38:56;;;;;;;;;;;21.70;24.00;;;;;;494420;241;1058;-73
2022/02/13 02:40:57;;;;;;;;;;;21.70;24.00;;;;;;494371;241;1189;-73
2022/02/13 02:42:59;;;;;;;;;;;21.70;24.00;;;;;;494271;241;1158;-73
2022/02/13 02:45:00;;;;;;;;;;;21.70;24.00;;;;;;494417;241;1036;-73
2022/02/13 02:47:01;;;;;;;;;;;21.70;24.10;;;;;;494297;241;1225;-73
2022/02/13 02:49:03;;;;;;;;;;;21.70;24.00;;;;;;494292;241;957;-73
2022/02/13 02:51:04;;;;;;;;;;;21.70;24.00;;;;;;494275;241;1153;-73
2022/02/13 02:53:05;;;;;;;;;;;21.70;24.00;;;;;;494300;241;1120;-73
2022/02/13 02:55:07;;;;;;;;;;;21.80;24.00;;;;;;494341;241;992;-73
2022/02/13 02:57:08;;;;;;;;;;;21.80;23.90;;;;;;494296;241;2156;-73
2022/02/13 02:59:09;;;;;;;;;;;21.80;23.90;;;;;;494348;241;1086;-73
2022/02/13 03:01:11;;;;;;;;;;;22.00;23.80;;;;;;494214;241;1437;-73
2022/02/13 03:03:12;;;;;;;;;;;22.20;23.60;;;;;;494210;241;1160;-73
2022/02/13 03:05:13;;;;;;;;;;;22.40;23.60;;;;;;494319;241;964;-73
2022/02/13 03:07:14;;;;;;;;;;;22.50;23.30;;;;;;494356;241;1120;-73
2022/02/13 03:09:16;;;;;;;;;;;22.60;23.30;;;;;;494329;241;1046;-73
2022/02/13 03:11:17;;;;;;;;;;;22.80;23.20;;;;;;494270;241;1152;-73
2022/02/13 03:13:20;;;;;;;;;;;22.70;23.10;;;;;;494238;241;1176;-73
2022/02/13 03:15:20;;;;;;;;;;;22.80;23.10;;;;;;494271;241;1451;-73
2022/02/13 03:17:21;;;;;;;;;;;22.80;23.10;;;;;;494267;241;2119;-73
2022/02/13 03:19:23;;;;;;;;;;;22.90;23.00;;;;;;494447;241;1097;-73
2022/02/13 03:21:24;;;;;;;;;;;22.90;23.00;;;;;;494278;241;1217;-74
2022/02/13 03:23:25;;;;;;;;;;;23.00;23.00;;;;;;494282;241;1098;-73
2022/02/13 03:25:27;;;;;;;;;;;23.10;22.90;;;;;;494344;241;1074;-73
2022/02/13 03:27:28;;;;;;;;;;;23.00;22.90;;;;;;494256;241;1237;-73
2022/02/13 03:29:29;;;;;;;;;;;23.00;22.90;;;;;;494317;241;1325;-73
2022/02/13 03:31:31;;;;;;;;;;;23.00;22.90;;;;;;494227;241;1383;-73
2022/02/13 03:33:32;;;;;;;;;;;23.10;22.90;;;;;;494280;241;1030;-73
2022/02/13 03:35:33;;;;;;;;;;;23.10;22.80;;;;;;494247;241;1096;-73
2022/02/13 03:37:35;;;;;;;;;;;23.10;22.80;;;;;;494130;241;2202;-73
2022/02/13 03:39:38;;;;;;;;;;;23.10;22.80;;;;;;494304;241;1032;-73
2022/02/13 03:41:37;;;;;;;;;;;23.10;22.80;;;;;;494169;241;1452;-73
2022/02/13 03:43:39;;;;;;;;;;;23.10;22.80;;;;;;494239;241;1186;-73
2022/02/13 03:45:40;;;;;;;;;;;23.20;22.80;;;;;;494291;241;1557;-73
2022/02/13 03:47:41;;;;;;;;;;;23.10;22.80;;;;;;494283;241;1047;-73
2022/02/13 03:49:43;;;;;;;;;;;23.20;22.70;;;;;;494290;241;1041;-73
2022/02/13 03:51:44;;;;;;;;;;;23.10;22.80;;;;;;494256;241;1202;-73
2022/02/13 03:53:45;;;;;;;;;;;23.20;22.80;;;;;;494309;241;1018;-74
2022/02/13 03:55:47;;;;;;;;;;;23.10;22.80;;;;;;494304;241;946;-74
2022/02/13 03:57:48;;;;;;;;;;;23.10;22.80;;;;;;494394;241;2182;-73
2022/02/13 03:59:49;;;;;;;;;;;23.20;22.80;;;;;;494275;241;1120;-73
2022/02/13 04:01:51;;;;;;;;;;;23.20;22.80;;;;;;494249;241;1361;-73
2022/02/13 04:03:52;;;;;;;;;;;23.10;22.80;;;;;;494283;241;1136;-73
2022/02/13 04:05:55;;;;;;;;;;;23.10;22.80;;;;;;494297;241;1126;-74
2022/02/13 04:07:55;;;;;;;;;;;23.10;22.80;;;;;;494303;241;1630;-73
2022/02/13 04:09:56;;;;;;;;;;;23.10;22.80;;;;;;494455;241;1026;-73
2022/02/13 04:11:57;;;;;;;;;;;23.10;22.80;;;;;;494202;241;1138;-73
2022/02/13 04:13:59;;;;;;;;;;;23.10;22.70;;;;;;494387;241;1142;-73
2022/02/13 04:16:00;;;;;;;;;;;23.20;22.70;;;;;;494208;241;1187;-73
2022/02/13 04:18:01;;;;;;;;;;;23.20;22.70;;;;;;494241;241;2124;-73
2022/02/13 04:20:03;;;;;;;;;;;23.20;22.80;;;;;;494348;241;952;-73
2022/02/13 04:22:04;;;;;;;;;;;23.20;22.70;;;;;;494382;241;1117;-73
2022/02/13 04:24:05;;;;;;;;;;;23.30;22.70;;;;;;494310;241;952;-73
2022/02/13 04:26:07;;;;;;;;;;;23.20;22.60;;;;;;494307;241;1113;-73
2022/02/13 04:28:08;;;;;;;;;;;23.20;22.70;;;;;;494405;241;1142;-74
2022/02/13 04:30:09;;;;;;;;;;;23.20;22.70;;;;;;494325;241;1037;-73
2022/02/13 04:32:11;;;;;;;;;;;23.30;22.70;;;;;;494342;241;1157;-73
2022/02/13 04:34:12;;;;;;;;;;;23.10;22.70;;;;;;494435;241;1082;-73
2022/02/13 04:36:13;;;;;;;;;;;23.20;22.70;;;;;;494361;241;1193;-73
2022/02/13 04:38:15;;;;;;;;;;;23.30;22.60;;;;;;494280;241;2115;-73
2022/02/13 04:40:16;;;;;;;;;;;23.20;22.60;;;;;;494395;241;1087;-73
2022/02/13 04:42:17;;;;;;;;;;;23.30;22.70;;;;;;494375;241;1118;-73
2022/02/13 04:44:19;;;;;;;;;;;23.20;22.60;;;;;;494244;241;1184;-73
2022/02/13 04:46:20;;;;;;;;;;;23.30;22.60;;;;;;494300;241;1194;-73
2022/02/13 04:48:21;;;;;;;;;;;23.20;22.60;;;;;;494280;241;1048;-73
2022/02/13 04:50:23;;;;;;;;;;;23.40;22.60;;;;;;494319;241;1275;-73
2022/02/13 04:52:24;;;;;;;;;;;23.20;22.60;;;;;;494293;241;1143;-73
2022/02/13 04:54:25;;;;;;;;;;;23.20;22.60;;;;;;494261;241;1344;-74
2022/02/13 04:56:27;;;;;;;;;;;23.30;22.60;;;;;;494256;241;1378;-73
2022/02/13 04:58:28;;;;;;;;;;;23.20;22.60;;;;;;494321;241;2198;-73
2022/02/13 05:00:29;;;;;;;;;;;23.30;22.60;;;;;;494242;241;1145;-74
2022/02/13 05:02:31;;;;;;;;;;;23.20;22.60;;;;;;494275;241;1117;-73
2022/02/13 05:04:32;;;;;;;;;;;23.20;22.60;;;;;;494322;241;960;-73
2022/02/13 05:06:35;;;;;;;;;;;23.20;22.60;;;;;;494313;241;1224;-73
2022/02/13 05:08:35;;;;;;;;;;;23.20;22.60;;;;;;494254;241;1398;-73
2022/02/13 05:10:36;;;;;;;;;;;23.30;22.60;;;;;;494258;241;932;-73
2022/02/13 05:12:38;;;;;;;;;;;23.20;22.60;;;;;;494295;241;1057;-73
2022/02/13 05:14:40;;;;;;;;;;;23.20;22.50;;;;;;494295;241;1139;-73
2022/02/13 05:16:40;;;;;;;;;;;23.20;22.60;;;;;;494110;237;1387;-73
2022/02/13 05:18:42;;;;;;;;;;;23.20;22.60;;;;;;494302;241;2127;-73
2022/02/13 05:20:43;;;;;;;;;;;23.20;22.60;;;;;;494281;241;1203;-73
2022/02/13 05:22:44;;;;;;;;;;;23.20;22.50;;;;;;494348;241;1102;-73
2022/02/13 05:24:47;;;;;;;;;;;23.20;22.60;;;;;;494326;241;1157;-73
2022/02/13 05:26:47;;;;;;;;;;;23.30;22.50;;;;;;494301;241;1402;-73
2022/02/13 05:28:49;;;;;;;;;;;23.20;22.50;;;;;;494400;241;1128;-73
2022/02/13 05:30:50;;;;;;;;;;;23.20;22.60;;;;;;494294;241;1208;-73
2022/02/13 05:32:52;;;;;;;;;;;23.20;22.50;;;;;;494218;241;1196;-73
2022/02/13 05:34:53;;;;;;;;;;;23.30;22.50;;;;;;494340;241;1083;-73
2022/02/13 05:36:54;;;;;;;;;;;23.20;22.50;;;;;;494418;241;1205;-73
2022/02/13 05:38:56;;;;;;;;;;;23.20;22.50;;;;;;494333;241;2116;-73
2022/02/13 05:40:57;;;;;;;;;;;23.10;22.50;;;;;;494377;241;1430;-73
2022/02/13 05:42:58;;;;;;;;;;;23.00;22.60;;;;;;494378;241;1197;-73
2022/02/13 05:45:00;;;;;;;;;;;23.00;22.50;;;;;;494416;241;1222;-73
2022/02/13 05:47:01;;;;;;;;;;;23.00;22.50;;;;;;494255;241;1113;-73
2022/02/13 05:49:02;;;;;;;;;;;23.10;22.50;;;;;;494286;241;954;-73
2022/02/13 05:51:04;;;;;;;;;;;23.00;22.50;;;;;;494299;241;1134;-73
2022/02/13 05:53:05;;;;;;;;;;;23.10;22.50;;;;;;494366;241;1066;-73
2022/02/13 05:55:07;;;;;;;;;;;23.00;22.50;;;;;;494260;241;980;-73
2022/02/13 05:57:08;;;;;;;;;;;23.00;22.40;;;;;;494284;241;1139;-73
2022/02/13 05:59:09;;;;;;;;;;;23.00;22.40;;;;;;494252;241;2190;-73
2022/02/13 06:01:12;;;;;;;;;;;23.00;22.40;;;;;;494183;241;1154;-73
2022/02/13 06:03:12;;;;;;;;;;;23.00;22.50;;;;;;494212;241;1328;-73
2022/02/13 06:05:14;;;;;;;;;;;22.90;22.40;;;;;;494333;241;1348;-73
2022/02/13 06:07:16;;;;;;;;;;;22.90;22.50;;;;;;494264;241;1250;-73
2022/02/13 06:09:17;;;;;;;;;;;23.00;22.50;;;;;;494277;241;995;-74
2022/02/13 06:11:18;;;;;;;;;;;22.90;22.50;;;;;;494276;241;1159;-73
2022/02/13 06:13:20;;;;;;;;;;;22.90;22.50;;;;;;494293;241;1063;-73
2022/02/13 06:15:21;;;;;;;;;;;22.90;22.50;;;;;;494445;241;1136;-73
2022/02/13 06:17:23;;;;;;;;;;;22.90;22.50;;;;;;494241;241;1021;-73
2022/02/13 06:19:24;;;;;;;;;;;22.90;22.50;;;;;;494368;241;2178;-74
2022/02/13 06:21:25;;;;;;;;;;;22.90;22.50;;;;;;494203;241;1182;-73
2022/02/13 06:23:27;;;;;;;;;;;23.00;22.50;;;;;;494205;241;957;-73
2022/02/13 06:25:28;;;;;;;;;;;22.90;22.40;;;;;;494288;241;1109;-73
2022/02/13 06:27:29;;;;;;;;;;;23.00;22.40;;;;;;494436;241;1118;-74
2022/02/13 06:29:31;;;;;;;;;;;23.00;22.40;;;;;;494350;241;1169;-74
2022/02/13 06:31:32;;;;;;;;;;;23.00;22.40;;;;;;494256;241;1431;-73
2022/02/13 06:33:33;;;;;;;;;;;22.80;22.40;;;;;;494249;241;1059;-73
2022/02/13 06:35:35;;;;;;;;;;;22.80;22.60;;;;;;494333;241;1190;-73
2022/02/13 06:37:36;;;;;;;;;;;22.80;22.50;;;;;;494262;241;2123;-73
2022/02/13 06:39:37;;;;;;;;;;;22.80;22.50;;;;;;494356;241;1000;-73
2022/02/13 06:41:39;;;;;;;;;;;22.80;22.50;;;;;;494357;241;1180;-73
2022/02/13 06:43:40;;;;;;;;;;;22.80;22.50;;;;;;494367;241;1167;-73
2022/02/13 06:45:41;;;;;;;;;;;22.90;22.50;;;;;;494312;241;1231;-73
2022/02/13 06:47:43;;;;;;;;;;;22.90;22.40;;;;;;494241;241;1103;-73
2022/02/13 06:49:44;;;;;;;;;;;22.80;22.50;;;;;;494285;241;936;-73
2022/02/13 06:51:46;;;;;;;;;;;22.80;22.50;;;;;;494142;241;1186;-73
2022/02/13 06:53:47;;;;;;;;;;;22.90;22.50;;;;;;494301;241;1052;-73
2022/02/13 06:55:48;;;;;;;;;;;22.80;22.50;;;;;;494329;241;1079;-73
2022/02/13 06:57:50;;;;;;;;;;;22.70;22.50;;;;;;494219;241;2179;-73
2022/02/13 06:59:51;;;;;;;;;;;22.80;22.60;;;;;;494474;241;1175;-73
2022/02/13 07:01:52;;;;;;;;;;;22.80;22.50;;;;;;494294;241;1185;-73
2022/02/13 07:03:54;;;;;;;;;;;22.80;22.50;;;;;;494335;241;982;-73
2022/02/13 07:05:55;;;;;;;;;;;22.80;22.50;;;;;;494234;241;1103;-73
2022/02/13 07:07:56;;;;;;;;;;;22.90;22.40;;;;;;494248;241;1079;-73
2022/02/13 07:09:58;;;;;;;;;;;22.80;22.40;;;;;;494303;241;1101;-73
2022/02/13 07:12:04;;;;;;;;;;;22.80;22.40;;;;;;494218;241;1161;-73
2022/02/13 07:14:00;;;;;;;;;;;22.80;22.50;;;;;;494054;241;1480;-73
2022/02/13 07:16:02;;;;;;;;;;;22.80;22.50;;;;;;494337;241;1084;-73
2022/02/13 07:18:03;;;;;;;;;;;22.80;22.40;;;;;;494222;241;2131;-73
2022/02/13 07:20:04;;;;;;;;;;;22.80;22.50;;;;;;494405;241;1180;-73
2022/02/13 07:22:06;;;;;;;;;;;22.80;22.40;;;;;;494310;241;1203;-73
2022/02/13 07:24:07;;;;;;;;;;;22.80;22.40;;;;;;494299;241;938;-73
2022/02/13 07:26:10;;;;;;;;;;;22.80;22.40;;;;;;494310;241;977;-73
2022/02/13 07:30:29;;;;;;;;;;;22.90;22.40;;;;;;494322;241;1132;-73
2022/02/13 07:32:32;;;;;;;;;;;22.80;22.30;;;;;;494221;241;1234;-74
2022/02/13 07:34:32;;;;;;;;;;;22.80;22.40;;;;;;494347;241;1300;-73
2022/02/13 07:36:33;;;;;;;;;;;22.80;22.40;;;;;;494227;241;969;-73
2022/02/13 07:38:34;;;;;;;;;;;22.80;22.30;;;;;;494286;241;2210;-73
2022/02/13 07:40:36;;;;;;;;;;;22.80;22.30;;;;;;494487;241;1051;-73
2022/02/13 07:42:37;;;;;;;;;;;22.80;22.30;;;;;;494275;241;1090;-73
2022/02/13 07:44:40;;;;;;;;;;;22.90;22.30;;;;;;494283;241;1174;-73
2022/02/13 07:46:40;;;;;;;;;;;22.90;22.30;;;;;;494095;241;1436;-74
2022/02/13 07:48:41;;;;;;;;;;;22.80;22.30;;;;;;494255;241;1042;-73
2022/02/13 07:50:43;;;;;;;;;;;22.90;22.30;;;;;;494335;241;962;-73
2022/02/13 07:52:44;;;;;;;;;;;22.90;22.20;;;;;;494304;241;1044;-73
2022/02/13 07:54:45;;;;;;;;;;;22.80;22.20;;;;;;494284;241;1037;-73
2022/02/13 07:56:47;;;;;;;;;;;22.90;22.20;;;;;;494300;241;1118;-73
2022/02/13 07:58:48;;;;;;;;;;;22.90;22.20;;;;;;494295;241;2191;-73
2022/02/13 08:00:49;;;;;;;;;;;22.90;22.20;;;;;;494300;241;1183;-73
2022/02/13 08:02:51;;;;;;;;;;;22.80;22.20;;;;;;494239;241;1216;-73
2022/02/13 08:04:52;;;;;;;;;;;22.80;22.20;;;;;;494304;241;1086;-74
2022/02/13 08:06:53;;;;;;;;;;;22.80;22.20;;;;;;494242;241;1127;-73
2022/02/13 08:08:55;;;;;;;;;;;22.90;22.20;;;;;;494279;241;1111;-73
2022/02/13 08:10:56;;;;;;;;;;;22.90;22.20;;;;;;494126;241;1101;-73
2022/02/13 08:12:58;;;;;;;;;;;22.90;22.20;;;;;;494199;241;1311;-74
2022/02/13 08:14:59;;;;;;;;;;;22.90;22.20;;;;;;494262;241;1122;-73
2022/02/13 08:17:00;;;;;;;;;;;22.90;22.10;;;;;;494155;241;1219;-73
2022/02/13 08:19:02;;;;;;;;;;;22.90;22.20;;;;;;494276;241;2111;-73
2022/02/13 08:21:03;;;;;;;;;;;22.90;22.20;;;;;;494258;241;1214;-73
2022/02/13 08:23:05;;;;;;;;;;;22.90;22.20;;;;;;494254;241;1120;-74
2022/02/13 08:25:06;;;;;;;;;;;22.90;22.20;;;;;;494288;241;1117;-73
2022/02/13 08:27:07;;;;;;;;;;;22.90;22.20;;;;;;494253;241;1203;-73
2022/02/13 08:29:09;;;;;;;;;;;22.90;22.20;;;;;;494245;241;1052;-73
2022/02/13 08:31:10;;;;;;;;;;;22.90;22.20;;;;;;494324;241;1170;-73
2022/02/13 08:33:11;;;;;;;;;;;23.00;22.20;;;;;;494284;241;1158;-73
2022/02/13 08:35:13;;;;;;;;;;;23.00;22.20;;;;;;494431;241;1003;-73
2022/02/13 08:37:14;;;;;;;;;;;22.90;22.20;;;;;;494218;241;1107;-73
2022/02/13 08:39:15;;;;;;;;;;;22.90;22.30;;;;;;494273;241;2182;-73
2022/02/13 08:41:17;;;;;;;;;;;22.80;22.20;;;;;;494206;241;1208;-73
2022/02/13 08:43:19;;;;;;;;;;;22.90;22.30;;;;;;494273;241;1134;-73
2022/02/13 08:45:19;;;;;;;;;;;23.00;22.30;;;;;;494255;241;1161;-73
2022/02/13 08:47:21;;;;;;;;;;;23.00;22.20;;;;;;494153;241;1108;-73
2022/02/13 08:49:22;;;;;;;;;;;22.90;22.30;;;;;;494262;241;1313;-74
2022/02/13 08:51:23;;;;;;;;;;;22.90;22.30;;;;;;494246;241;1220;-73
2022/02/13 08:53:25;;;;;;;;;;;22.90;22.30;;;;;;494356;241;1183;-73
2022/02/13 08:55:26;;;;;;;;;;;22.90;22.30;;;;;;494310;241;1054;-73
2022/02/13 08:57:28;;;;;;;;;;;22.90;22.30;;;;;;494307;241;1076;-73
2022/02/13 08:59:29;;;;;;;;;;;22.90;22.30;;;;;;494314;241;2183;-74
2022/02/13 09:01:30;;;;;;;;;;;22.90;22.30;;;;;;494242;241;1194;-74
2022/02/13 09:03:33;;;;;;;;;;;22.80;22.30;;;;;;494261;241;1074;-74
2022/02/13 09:05:33;;;;;;;;;;;22.90;22.30;;;;;;494195;241;1422;-73
2022/02/13 09:07:35;;;;;;;;;;;22.90;22.30;;;;;;494276;241;978;-73
2022/02/13 09:09:35;;;;;;;;;;;22.90;22.30;;;;;;494414;241;1515;-74
2022/02/13 09:11:37;;;;;;;;;;;22.90;22.40;;;;;;494171;241;959;-74
2022/02/13 09:13:38;;;;;;;;;;;22.90;22.40;;;;;;494293;241;994;-73
2022/02/13 09:15:39;;;;;;;;;;;22.90;22.30;;;;;;494281;241;1135;-73
2022/02/13 09:17:41;;;;;;;;;;;22.80;22.40;;;;;;494283;241;1089;-73
2022/02/13 09:19:42;;;;;;;;;;;22.80;22.40;;;;;;494142;241;2178;-73
2022/02/13 09:21:43;;;;;;;;;;;22.80;22.40;;;;;;494378;241;1063;-73
2022/02/13 09:23:45;;;;;;;;;;;22.80;22.40;;;;;;494234;241;1099;-74
2022/02/13 09:25:46;;;;;;;;;;;22.90;22.40;;;;;;494194;241;1075;-73
2022/02/13 09:27:47;;;;;;;;;;;22.90;22.40;;;;;;494324;241;1135;-73
2022/02/13 09:29:51;;;;;;;;;;;22.90;22.40;;;;;;494284;241;1071;-73
2022/02/13 09:31:50;;;;;;;;;;;22.80;22.40;;;;;;494131;241;1484;-73
2022/02/13 09:33:51;;;;;;;;;;;22.90;22.40;;;;;;494299;241;939;-73
2022/02/13 09:35:53;;;;;;;;;;;22.90;22.40;;;;;;494279;241;1247;-73
2022/02/13 09:37:56;;;;;;;;;;;23.00;22.50;;;;;;494218;241;1010;-73
2022/02/13 09:39:55;;;;;;;;;;;22.90;22.40;;;;;;494299;241;2185;-73
2022/02/13 09:41:57;;;;;;;;;;;23.00;22.50;;;;;;494253;241;1252;-73
2022/02/13 09:43:58;;;;;;;;;;;23.00;22.50;;;;;;494300;241;1145;-73
2022/02/13 09:45:59;;;;;;;;;;;22.90;22.50;;;;;;494279;237;1281;-73
2022/02/13 09:48:01;;;;;;;;;;;22.90;22.50;;;;;;494247;241;1226;-74
2022/02/13 09:50:02;;;;;;;;;;;22.90;22.50;;;;;;494281;241;948;-74
2022/02/13 09:52:04;;;;;;;;;;;22.90;22.50;;;;;;494237;241;1049;-74
2022/02/13 09:54:06;;;;;;;;;;;22.90;22.60;;;;;;494259;241;932;-74
2022/02/13 09:56:07;;;;;;;;;;;22.90;22.70;;;;;;494258;241;1266;-74
2022/02/13 09:58:08;;;;;;;;;;;22.80;22.70;;;;;;494281;241;1009;-74
2022/02/13 10:00:10;;;;;;;;;;;22.80;22.70;;;;;;494278;241;2135;-74
2022/02/13 10:02:11;;;;;;;;;;;22.90;22.70;;;;;;494240;241;1092;-74
2022/02/13 10:04:12;;;;;;;;;;;22.90;22.70;;;;;;494433;241;1107;-74
2022/02/13 10:06:14;;;;;;;;;;;22.80;22.60;;;;;;494282;241;1234;-73
2022/02/13 10:08:15;;;;;;;;;;;22.90;22.60;;;;;;494278;241;1175;-73
2022/02/13 10:10:16;;;;;;;;;;;23.00;22.60;;;;;;494333;241;1002;-73
2022/02/13 10:12:18;;;;;;;;;;;22.90;22.60;;;;;;494306;241;1057;-73
2022/02/13 10:14:19;;;;;;;;;;;22.90;22.70;;;;;;494318;241;962;-74
2022/02/13 10:16:20;;;;;;;;;;;22.90;22.70;;;;;;494255;241;1342;-74
2022/02/13 10:18:22;;;;;;;;;;;23.00;22.70;;;;;;494267;241;1156;-73
2022/02/13 10:20:23;;;;;;;;;;;23.00;22.70;;;;;;494254;241;2166;-73
2022/02/13 10:22:25;;;;;;;;;;;23.00;22.70;;;;;;494150;241;1155;-73
2022/02/13 10:24:26;;;;;;;;;;;23.00;22.70;;;;;;494189;241;1641;-73
2022/02/13 10:26:27;;;;;;;;;;;23.00;22.60;;;;;;494224;241;1192;-73
2022/02/13 10:28:28;;;;;;;;;;;23.00;22.70;;;;;;494366;241;1199;-73
2022/02/13 10:30:30;;;;;;;;;;;22.80;22.60;;;;;;494281;241;1142;-74
2022/02/13 10:32:31;;;;;;;;;;;22.90;22.70;;;;;;494303;241;1143;-74
2022/02/13 10:34:32;;;;;;;;;;;22.90;22.70;;;;;;494337;241;1092;-73
2022/02/13 10:36:34;;;;;;;;;;;22.90;22.70;;;;;;494361;241;1109;-73
2022/02/13 10:38:36;;;;;;;;;;;22.90;22.70;;;;;;494277;241;1152;-74
2022/02/13 10:40:38;;;;;;;;;;;22.90;22.70;;;;;;494370;241;2178;-74
2022/02/13 10:42:39;;;;;;;;;;;23.00;22.70;;;;;;494269;241;1147;-73
2022/02/13 10:44:40;;;;;;;;;;;23.00;22.80;;;;;;494298;241;1020;-73
2022/02/13 10:46:42;;;;;;;;;;;23.00;22.70;;;;;;494221;241;1255;-73
2022/02/13 10:48:43;;;;;;;;;;;23.10;22.70;;;;;;494274;241;1147;-73
2022/02/13 10:50:44;;;;;;;;;;;23.00;22.70;;;;;;494375;241;1215;-73
2022/02/13 10:52:46;;;;;;;;;;;23.10;22.70;;;;;;494210;241;1208;-73
2022/02/13 10:54:48;;;;;;;;;;;23.00;22.70;;;;;;494396;241;1046;-74
2022/02/13 10:56:49;;;;;;;;;;;23.10;22.70;;;;;;494168;241;1311;-73
2022/02/13 10:58:50;;;;;;;;;;;23.20;22.70;;;;;;494450;241;1043;-74
2022/02/13 11:00:51;;;;;;;;;;;23.20;22.70;;;;;;494305;237;2179;-74
2022/02/13 11:02:53;;;;;;;;;;;23.20;22.70;;;;;;494241;241;1106;-73
2022/02/13 11:04:54;;;;;;;;;;;23.20;22.70;;;;;;494284;241;1007;-73
2022/02/13 11:06:56;;;;;;;;;;;23.20;22.70;;;;;;494247;241;1151;-73
2022/02/13 11:08:58;;;;;;;;;;;23.10;22.70;;;;;;494220;241;1098;-73
2022/02/13 11:10:58;;;;;;;;;;;23.00;22.70;;;;;;494297;241;1494;-73
2022/02/13 11:12:59;;;;;;;;;;;22.90;22.80;;;;;;494312;241;1078;-74
2022/02/13 11:15:01;;;;;;;;;;;22.90;22.90;;;;;;494286;241;966;-74
2022/02/13 11:17:02;;;;;;;;;;;22.90;22.90;;;;;;494103;241;1962;-73
2022/02/13 11:19:04;;;;;;;;;;;22.70;23.00;;;;;;494363;241;938;-73
2022/02/13 11:21:05;;;;;;;;;;;22.80;23.00;;;;;;494213;241;2115;-73
2022/02/13 11:23:06;;;;;;;;;;;22.70;23.10;;;;;;494351;241;1084;-73
2022/02/13 11:25:10;;;;;;;;;;;22.70;23.00;;;;;;494491;241;1073;-73
2022/02/13 11:27:09;;;;;;;;;;;22.70;23.00;;;;;;494139;241;1508;-73
2022/02/13 11:29:10;;;;;;;;;;;22.70;23.00;;;;;;494293;241;1040;-73
2022/02/13 11:31:12;;;;;;;;;;;22.80;23.00;;;;;;494347;241;1312;-74
2022/02/13 11:33:13;;;;;;;;;;;22.70;23.10;;;;;;494334;241;1160;-73
2022/02/13 11:35:17;;;;;;;;;;;22.60;23.20;;;;;;494326;241;948;-73
2022/02/13 11:37:19;;;;;;;;;;;22.60;23.20;;;;;;494152;241;1420;-73
2022/02/13 11:39:18;;;;;;;;;;;22.60;23.20;;;;;;494288;241;1368;-73
2022/02/13 11:41:20;;;;;;;;;;;22.60;23.20;;;;;;494241;241;2182;-73
2022/02/13 11:43:21;;;;;;;;;;;22.60;23.20;;;;;;494373;241;1173;-73
2022/02/13 11:45:24;;;;;;;;;;;22.50;23.30;;;;;;494476;241;1087;-73
2022/02/13 11:47:24;;;;;;;;;;;22.50;23.30;;;;;;494116;241;1352;-73
2022/02/13 11:49:25;;;;;;;;;;;22.50;23.40;;;;;;494278;241;1044;-73
2022/02/13 11:51:26;;;;;;;;;;;22.50;23.40;;;;;;494283;241;1237;-73
2022/02/13 11:53:28;;;;;;;;;;;22.50;23.40;;;;;;494253;241;1159;-73
2022/02/13 11:55:30;;;;;;;;;;;22.50;23.50;;;;;;494295;241;1066;-73
2022/02/13 11:57:33;;;;;;;;;;;22.60;23.40;;;;;;494157;241;1421;-73
2022/02/13 11:59:31;;;;;;;;;;;22.70;23.30;;;;;;494156;241;2190;-73